sensor_id;sensor_type;location;lat;lon;timestamp;P1;durP1;ratioP1;P2;durP2;ratioP2
73428;SDS011;61643;49.564;17.412;2023-07-16T00:01:52;6.95;;;6.25;;
73428;SDS011;61643;49.564;17.412;2023-07-16T00:04:18;8.38;;;6.53;;
73428;SDS011;61643;49.564;17.412;2023-07-16T00:06:45;7.28;;;6.57;;
73428;SDS011;61643;49.564;17.412;2023-07-16T00:09:11;8.48;;;6.53;;
73428;SDS011;61643;49.564;17.412;2023-07-16T00:11:37;10.02;;;6.88;;
73428;SDS011;61643;49.564;17.412;2023-07-16T00:14:03;7.50;;;6.63;;
73428;SDS011;61643;49.564;17.412;2023-07-16T00:16:29;7.68;;;6.97;;
73428;SDS011;61643;49.564;17.412;2023-07-16T00:18:55;12.43;;;7.10;;
73428;SDS011;61643;49.564;17.412;2023-07-16T00:21:21;7.68;;;6.90;;
73428;SDS011;61643;49.564;17.412;2023-07-16T00:23:47;9.98;;;7.45;;
73428;SDS011;61643;49.564;17.412;2023-07-16T00:26:13;8.02;;;7.22;;
73428;SDS011;61643;49.564;17.412;2023-07-16T00:28:39;7.85;;;7.05;;
73428;SDS011;61643;49.564;17.412;2023-07-16T00:31:05;9.93;;;7.93;;
73428;SDS011;61643;49.564;17.412;2023-07-16T00:33:31;9.48;;;7.65;;
73428;SDS011;61643;49.564;17.412;2023-07-16T00:35:57;10.63;;;7.65;;
73428;SDS011;61643;49.564;17.412;2023-07-16T00:38:23;9.43;;;7.93;;
73428;SDS011;61643;49.564;17.412;2023-07-16T00:40:49;10.15;;;7.63;;
73428;SDS011;61643;49.564;17.412;2023-07-16T00:43:15;10.40;;;7.30;;
73428;SDS011;61643;49.564;17.412;2023-07-16T00:45:41;9.35;;;8.15;;
73428;SDS011;61643;49.564;17.412;2023-07-16T00:48:10;8.95;;;8.05;;
73428;SDS011;61643;49.564;17.412;2023-07-16T00:50:38;9.98;;;8.38;;
73428;SDS011;61643;49.564;17.412;2023-07-16T00:53:05;9.75;;;7.88;;
73428;SDS011;61643;49.564;17.412;2023-07-16T00:55:32;9.40;;;8.27;;
73428;SDS011;61643;49.564;17.412;2023-07-16T00:58:06;12.50;;;8.65;;
73428;SDS011;61643;49.564;17.412;2023-07-16T01:00:36;9.50;;;8.63;;
73428;SDS011;61643;49.564;17.412;2023-07-16T01:03:03;9.82;;;8.82;;
73428;SDS011;61643;49.564;17.412;2023-07-16T01:05:34;13.02;;;8.80;;
73428;SDS011;61643;49.564;17.412;2023-07-16T01:08:11;10.20;;;9.20;;
73428;SDS011;61643;49.564;17.412;2023-07-16T01:10:39;11.98;;;8.82;;
73428;SDS011;61643;49.564;17.412;2023-07-16T01:13:07;10.82;;;8.57;;
73428;SDS011;61643;49.564;17.412;2023-07-16T01:15:33;11.93;;;8.93;;
73428;SDS011;61643;49.564;17.412;2023-07-16T01:17:59;10.50;;;8.80;;
73428;SDS011;61643;49.564;17.412;2023-07-16T01:20:26;11.98;;;9.00;;
73428;SDS011;61643;49.564;17.412;2023-07-16T01:23:08;10.18;;;9.18;;
73428;SDS011;61643;49.564;17.412;2023-07-16T01:31:11;10.50;;;9.50;;
73428;SDS011;61643;49.564;17.412;2023-07-16T01:33:38;13.98;;;9.57;;
73428;SDS011;61643;49.564;17.412;2023-07-16T01:36:07;11.48;;;9.77;;
73428;SDS011;61643;49.564;17.412;2023-07-16T01:38:34;11.23;;;10.13;;
73428;SDS011;61643;49.564;17.412;2023-07-16T01:41:01;11.07;;;9.98;;
73428;SDS011;61643;49.564;17.412;2023-07-16T01:43:27;11.45;;;9.90;;
73428;SDS011;61643;49.564;17.412;2023-07-16T01:45:53;11.63;;;10.48;;
73428;SDS011;61643;49.564;17.412;2023-07-16T01:48:32;11.40;;;10.15;;
73428;SDS011;61643;49.564;17.412;2023-07-16T01:51:01;12.52;;;10.70;;
73428;SDS011;61643;49.564;17.412;2023-07-16T01:53:27;12.07;;;10.52;;
73428;SDS011;61643;49.564;17.412;2023-07-16T01:55:53;11.68;;;10.48;;
73428;SDS011;61643;49.564;17.412;2023-07-16T01:58:19;11.00;;;9.90;;
73428;SDS011;61643;49.564;17.412;2023-07-16T02:00:45;11.75;;;10.05;;
73428;SDS011;61643;49.564;17.412;2023-07-16T02:03:11;11.13;;;10.02;;
73428;SDS011;61643;49.564;17.412;2023-07-16T02:05:37;12.60;;;10.80;;
73428;SDS011;61643;49.564;17.412;2023-07-16T02:08:03;11.55;;;10.35;;
73428;SDS011;61643;49.564;17.412;2023-07-16T02:10:29;12.68;;;10.88;;
73428;SDS011;61643;49.564;17.412;2023-07-16T02:12:55;12.98;;;10.88;;
73428;SDS011;61643;49.564;17.412;2023-07-16T02:15:21;11.73;;;10.52;;
73428;SDS011;61643;49.564;17.412;2023-07-16T02:17:47;12.15;;;10.77;;
73428;SDS011;61643;49.564;17.412;2023-07-16T02:20:13;13.68;;;11.18;;
73428;SDS011;61643;49.564;17.412;2023-07-16T02:22:39;12.05;;;10.75;;
73428;SDS011;61643;49.564;17.412;2023-07-16T02:25:05;11.80;;;10.70;;
73428;SDS011;61643;49.564;17.412;2023-07-16T02:27:31;13.55;;;10.63;;
73428;SDS011;61643;49.564;17.412;2023-07-16T02:29:57;11.73;;;10.52;;
73428;SDS011;61643;49.564;17.412;2023-07-16T02:32:23;12.35;;;11.15;;
73428;SDS011;61643;49.564;17.412;2023-07-16T02:34:49;12.00;;;10.90;;
73428;SDS011;61643;49.564;17.412;2023-07-16T02:37:15;12.50;;;11.20;;
73428;SDS011;61643;49.564;17.412;2023-07-16T02:39:42;12.07;;;10.88;;
73428;SDS011;61643;49.564;17.412;2023-07-16T02:42:10;12.02;;;10.82;;
73428;SDS011;61643;49.564;17.412;2023-07-16T02:44:36;12.05;;;10.75;;
73428;SDS011;61643;49.564;17.412;2023-07-16T02:47:07;12.27;;;11.05;;
73428;SDS011;61643;49.564;17.412;2023-07-16T02:49:33;12.88;;;11.55;;
73428;SDS011;61643;49.564;17.412;2023-07-16T02:51:59;13.23;;;10.43;;
73428;SDS011;61643;49.564;17.412;2023-07-16T02:54:25;14.27;;;11.25;;
73428;SDS011;61643;49.564;17.412;2023-07-16T02:56:51;15.10;;;11.18;;
73428;SDS011;61643;49.564;17.412;2023-07-16T02:59:18;12.02;;;10.82;;
73428;SDS011;61643;49.564;17.412;2023-07-16T03:01:44;11.40;;;10.30;;
73428;SDS011;61643;49.564;17.412;2023-07-16T03:04:09;12.95;;;11.48;;
73428;SDS011;61643;49.564;17.412;2023-07-16T03:06:35;12.45;;;11.15;;
73428;SDS011;61643;49.564;17.412;2023-07-16T03:09:01;12.93;;;11.15;;
73428;SDS011;61643;49.564;17.412;2023-07-16T03:11:28;12.18;;;10.90;;
73428;SDS011;61643;49.564;17.412;2023-07-16T03:13:54;12.88;;;10.85;;
73428;SDS011;61643;49.564;17.412;2023-07-16T03:16:19;13.85;;;10.77;;
73428;SDS011;61643;49.564;17.412;2023-07-16T03:18:45;12.15;;;10.90;;
73428;SDS011;61643;49.564;17.412;2023-07-16T03:21:12;11.73;;;10.52;;
73428;SDS011;61643;49.564;17.412;2023-07-16T03:23:38;12.07;;;10.88;;
73428;SDS011;61643;49.564;17.412;2023-07-16T03:26:04;12.25;;;10.60;;
73428;SDS011;61643;49.564;17.412;2023-07-16T03:28:30;12.70;;;11.05;;
73428;SDS011;61643;49.564;17.412;2023-07-16T03:30:56;12.93;;;10.90;;
73428;SDS011;61643;49.564;17.412;2023-07-16T03:33:22;11.55;;;10.35;;
73428;SDS011;61643;49.564;17.412;2023-07-16T03:35:48;12.65;;;10.68;;
73428;SDS011;61643;49.564;17.412;2023-07-16T03:38:14;11.52;;;10.25;;
73428;SDS011;61643;49.564;17.412;2023-07-16T03:40:46;13.75;;;10.63;;
73428;SDS011;61643;49.564;17.412;2023-07-16T03:43:13;12.77;;;10.65;;
73428;SDS011;61643;49.564;17.412;2023-07-16T03:45:40;12.32;;;10.75;;
73428;SDS011;61643;49.564;17.412;2023-07-16T03:48:06;11.20;;;10.10;;
73428;SDS011;61643;49.564;17.412;2023-07-16T03:50:32;10.93;;;9.93;;
73428;SDS011;61643;49.564;17.412;2023-07-16T03:52:58;12.50;;;10.90;;
73428;SDS011;61643;49.564;17.412;2023-07-16T03:55:24;11.20;;;10.10;;
73428;SDS011;61643;49.564;17.412;2023-07-16T03:57:50;11.75;;;10.43;;
73428;SDS011;61643;49.564;17.412;2023-07-16T04:00:17;12.10;;;10.43;;
73428;SDS011;61643;49.564;17.412;2023-07-16T04:02:43;11.57;;;10.38;;
73428;SDS011;61643;49.564;17.412;2023-07-16T04:05:09;12.07;;;9.43;;
73428;SDS011;61643;49.564;17.412;2023-07-16T04:07:35;12.38;;;10.65;;
73428;SDS011;61643;49.564;17.412;2023-07-16T04:10:01;11.48;;;9.95;;
73428;SDS011;61643;49.564;17.412;2023-07-16T04:12:27;11.75;;;10.55;;
73428;SDS011;61643;49.564;17.412;2023-07-16T04:14:55;11.73;;;10.52;;
73428;SDS011;61643;49.564;17.412;2023-07-16T04:17:22;10.80;;;9.68;;
73428;SDS011;61643;49.564;17.412;2023-07-16T04:19:48;10.65;;;9.60;;
73428;SDS011;61643;49.564;17.412;2023-07-16T04:22:14;9.88;;;9.02;;
73428;SDS011;61643;49.564;17.412;2023-07-16T04:24:40;10.73;;;9.30;;
73428;SDS011;61643;49.564;17.412;2023-07-16T04:27:06;12.63;;;9.60;;
73428;SDS011;61643;49.564;17.412;2023-07-16T04:29:32;10.65;;;9.52;;
73428;SDS011;61643;49.564;17.412;2023-07-16T04:31:58;9.45;;;8.63;;
73428;SDS011;61643;49.564;17.412;2023-07-16T04:34:24;9.95;;;8.95;;
73428;SDS011;61643;49.564;17.412;2023-07-16T04:36:50;10.70;;;9.60;;
73428;SDS011;61643;49.564;17.412;2023-07-16T04:39:16;11.20;;;9.82;;
73428;SDS011;61643;49.564;17.412;2023-07-16T04:41:42;10.75;;;9.65;;
73428;SDS011;61643;49.564;17.412;2023-07-16T04:44:08;10.15;;;9.25;;
73428;SDS011;61643;49.564;17.412;2023-07-16T04:46:34;10.75;;;8.90;;
73428;SDS011;61643;49.564;17.412;2023-07-16T04:49:01;11.77;;;9.18;;
73428;SDS011;61643;49.564;17.412;2023-07-16T04:51:27;10.32;;;9.02;;
73428;SDS011;61643;49.564;17.412;2023-07-16T04:53:53;10.30;;;9.30;;
73428;SDS011;61643;49.564;17.412;2023-07-16T04:56:19;9.95;;;9.05;;
73428;SDS011;61643;49.564;17.412;2023-07-16T04:58:45;11.68;;;8.85;;
73428;SDS011;61643;49.564;17.412;2023-07-16T05:01:11;10.07;;;8.98;;
73428;SDS011;61643;49.564;17.412;2023-07-16T05:03:37;11.88;;;8.88;;
73428;SDS011;61643;49.564;17.412;2023-07-16T05:06:03;12.32;;;8.80;;
73428;SDS011;61643;49.564;17.412;2023-07-16T05:08:29;9.88;;;8.73;;
73428;SDS011;61643;49.564;17.412;2023-07-16T05:10:56;12.13;;;8.35;;
73428;SDS011;61643;49.564;17.412;2023-07-16T05:13:22;10.15;;;8.45;;
73428;SDS011;61643;49.564;17.412;2023-07-16T05:15:48;10.50;;;9.20;;
73428;SDS011;61643;49.564;17.412;2023-07-16T05:18:14;10.00;;;8.73;;
73428;SDS011;61643;49.564;17.412;2023-07-16T05:20:41;8.50;;;7.57;;
73428;SDS011;61643;49.564;17.412;2023-07-16T05:23:07;9.25;;;8.35;;
73428;SDS011;61643;49.564;17.412;2023-07-16T05:25:33;8.45;;;7.65;;
73428;SDS011;61643;49.564;17.412;2023-07-16T05:27:59;9.35;;;8.13;;
73428;SDS011;61643;49.564;17.412;2023-07-16T05:30:25;10.32;;;7.75;;
73428;SDS011;61643;49.564;17.412;2023-07-16T05:32:51;8.50;;;7.70;;
73428;SDS011;61643;49.564;17.412;2023-07-16T05:35:16;8.63;;;7.72;;
73428;SDS011;61643;49.564;17.412;2023-07-16T05:37:42;9.70;;;8.77;;
73428;SDS011;61643;49.564;17.412;2023-07-16T05:40:08;8.90;;;8.02;;
73428;SDS011;61643;49.564;17.412;2023-07-16T05:42:35;9.10;;;8.20;;
73428;SDS011;61643;49.564;17.412;2023-07-16T05:45:01;13.65;;;8.20;;
73428;SDS011;61643;49.564;17.412;2023-07-16T05:47:27;9.48;;;8.45;;
73428;SDS011;61643;49.564;17.412;2023-07-16T05:49:53;10.00;;;9.00;;
73428;SDS011;61643;49.564;17.412;2023-07-16T05:52:19;10.25;;;8.45;;
73428;SDS011;61643;49.564;17.412;2023-07-16T05:54:45;9.68;;;8.68;;
73428;SDS011;61643;49.564;17.412;2023-07-16T05:57:11;10.23;;;9.02;;
73428;SDS011;61643;49.564;17.412;2023-07-16T05:59:37;11.65;;;8.10;;
73428;SDS011;61643;49.564;17.412;2023-07-16T06:02:03;9.18;;;8.23;;
73428;SDS011;61643;49.564;17.412;2023-07-16T06:04:30;9.27;;;8.23;;
73428;SDS011;61643;49.564;17.412;2023-07-16T06:06:56;11.30;;;9.55;;
73428;SDS011;61643;49.564;17.412;2023-07-16T06:09:22;10.77;;;9.65;;
73428;SDS011;61643;49.564;17.412;2023-07-16T06:11:49;10.43;;;9.13;;
73428;SDS011;61643;49.564;17.412;2023-07-16T06:14:15;10.82;;;9.52;;
73428;SDS011;61643;49.564;17.412;2023-07-16T06:16:41;10.73;;;9.63;;
73428;SDS011;61643;49.564;17.412;2023-07-16T06:19:07;10.52;;;9.43;;
73428;SDS011;61643;49.564;17.412;2023-07-16T06:21:33;11.00;;;9.85;;
73428;SDS011;61643;49.564;17.412;2023-07-16T06:24:00;10.07;;;8.93;;
73428;SDS011;61643;49.564;17.412;2023-07-16T06:26:26;10.35;;;9.32;;
73428;SDS011;61643;49.564;17.412;2023-07-16T06:28:52;10.18;;;9.18;;
73428;SDS011;61643;49.564;17.412;2023-07-16T06:31:18;10.40;;;9.32;;
73428;SDS011;61643;49.564;17.412;2023-07-16T06:33:44;10.38;;;9.35;;
73428;SDS011;61643;49.564;17.412;2023-07-16T06:36:12;10.25;;;9.23;;
73428;SDS011;61643;49.564;17.412;2023-07-16T06:38:38;10.98;;;9.88;;
73428;SDS011;61643;49.564;17.412;2023-07-16T06:41:04;11.13;;;10.00;;
73428;SDS011;61643;49.564;17.412;2023-07-16T06:43:30;10.52;;;9.52;;
73428;SDS011;61643;49.564;17.412;2023-07-16T06:45:56;10.60;;;9.50;;
73428;SDS011;61643;49.564;17.412;2023-07-16T06:48:22;10.45;;;9.25;;
73428;SDS011;61643;49.564;17.412;2023-07-16T06:50:51;10.73;;;9.60;;
73428;SDS011;61643;49.564;17.412;2023-07-16T06:53:17;15.45;;;9.85;;
73428;SDS011;61643;49.564;17.412;2023-07-16T06:55:43;10.13;;;9.13;;
73428;SDS011;61643;49.564;17.412;2023-07-16T06:58:10;10.85;;;9.63;;
73428;SDS011;61643;49.564;17.412;2023-07-16T07:00:36;11.18;;;9.13;;
73428;SDS011;61643;49.564;17.412;2023-07-16T07:03:06;12.45;;;9.57;;
73428;SDS011;61643;49.564;17.412;2023-07-16T07:05:31;11.38;;;10.27;;
73428;SDS011;61643;49.564;17.412;2023-07-16T07:07:57;10.95;;;9.90;;
73428;SDS011;61643;49.564;17.412;2023-07-16T07:10:23;11.43;;;10.23;;
73428;SDS011;61643;49.564;17.412;2023-07-16T07:12:49;10.77;;;9.65;;
73428;SDS011;61643;49.564;17.412;2023-07-16T07:15:18;11.25;;;10.25;;
73428;SDS011;61643;49.564;17.412;2023-07-16T07:17:44;12.65;;;10.52;;
73428;SDS011;61643;49.564;17.412;2023-07-16T07:20:12;12.10;;;10.90;;
73428;SDS011;61643;49.564;17.412;2023-07-16T07:22:38;13.68;;;10.70;;
73428;SDS011;61643;49.564;17.412;2023-07-16T07:25:04;11.57;;;10.20;;
73428;SDS011;61643;49.564;17.412;2023-07-16T07:27:31;11.93;;;10.73;;
73428;SDS011;61643;49.564;17.412;2023-07-16T07:29:57;11.75;;;10.30;;
73428;SDS011;61643;49.564;17.412;2023-07-16T07:32:23;13.20;;;10.75;;
73428;SDS011;61643;49.564;17.412;2023-07-16T07:34:49;11.05;;;9.95;;
73428;SDS011;61643;49.564;17.412;2023-07-16T07:37:15;10.82;;;9.57;;
73428;SDS011;61643;49.564;17.412;2023-07-16T07:39:41;12.25;;;10.95;;
73428;SDS011;61643;49.564;17.412;2023-07-16T07:42:07;14.15;;;10.32;;
73428;SDS011;61643;49.564;17.412;2023-07-16T07:44:35;11.63;;;10.13;;
73428;SDS011;61643;49.564;17.412;2023-07-16T07:47:01;11.30;;;9.70;;
73428;SDS011;61643;49.564;17.412;2023-07-16T07:49:27;11.43;;;10.32;;
73428;SDS011;61643;49.564;17.412;2023-07-16T07:51:53;11.63;;;10.30;;
73428;SDS011;61643;49.564;17.412;2023-07-16T07:54:20;12.57;;;10.25;;
73428;SDS011;61643;49.564;17.412;2023-07-16T07:56:46;11.75;;;10.65;;
73428;SDS011;61643;49.564;17.412;2023-07-16T07:59:12;11.60;;;10.50;;
73428;SDS011;61643;49.564;17.412;2023-07-16T08:01:38;11.90;;;10.80;;
73428;SDS011;61643;49.564;17.412;2023-07-16T08:04:04;13.50;;;10.18;;
73428;SDS011;61643;49.564;17.412;2023-07-16T08:06:31;13.40;;;11.23;;
73428;SDS011;61643;49.564;17.412;2023-07-16T08:08:57;11.75;;;9.68;;
73428;SDS011;61643;49.564;17.412;2023-07-16T08:11:23;12.30;;;11.00;;
73428;SDS011;61643;49.564;17.412;2023-07-16T08:13:49;12.20;;;11.00;;
73428;SDS011;61643;49.564;17.412;2023-07-16T08:16:15;12.20;;;11.10;;
73428;SDS011;61643;49.564;17.412;2023-07-16T08:18:41;12.77;;;11.40;;
73428;SDS011;61643;49.564;17.412;2023-07-16T08:21:07;12.85;;;11.55;;
73428;SDS011;61643;49.564;17.412;2023-07-16T08:23:33;13.65;;;10.63;;
73428;SDS011;61643;49.564;17.412;2023-07-16T08:25:59;10.95;;;9.90;;
73428;SDS011;61643;49.564;17.412;2023-07-16T08:28:25;11.63;;;10.52;;
73428;SDS011;61643;49.564;17.412;2023-07-16T08:30:51;13.20;;;10.23;;
73428;SDS011;61643;49.564;17.412;2023-07-16T08:33:17;12.15;;;10.90;;
73428;SDS011;61643;49.564;17.412;2023-07-16T08:35:42;12.48;;;11.20;;
73428;SDS011;61643;49.564;17.412;2023-07-16T08:38:08;11.25;;;10.07;;
73428;SDS011;61643;49.564;17.412;2023-07-16T08:40:36;12.80;;;11.00;;
73428;SDS011;61643;49.564;17.412;2023-07-16T08:43:04;12.43;;;11.23;;
73428;SDS011;61643;49.564;17.412;2023-07-16T08:45:31;14.20;;;11.48;;
73428;SDS011;61643;49.564;17.412;2023-07-16T08:50:31;12.90;;;11.73;;
73428;SDS011;61643;49.564;17.412;2023-07-16T08:55:26;12.93;;;11.52;;
73428;SDS011;61643;49.564;17.412;2023-07-16T08:57:52;13.23;;;11.93;;
73428;SDS011;61643;49.564;17.412;2023-07-16T09:00:18;11.73;;;10.52;;
73428;SDS011;61643;49.564;17.412;2023-07-16T09:02:45;12.70;;;11.40;;
73428;SDS011;61643;49.564;17.412;2023-07-16T09:05:12;11.32;;;8.93;;
73428;SDS011;61643;49.564;17.412;2023-07-16T09:07:40;11.60;;;9.35;;
73428;SDS011;61643;49.564;17.412;2023-07-16T09:10:06;12.73;;;9.45;;
73428;SDS011;61643;49.564;17.412;2023-07-16T09:12:33;9.35;;;8.38;;
73428;SDS011;61643;49.564;17.412;2023-07-16T09:14:59;10.20;;;9.13;;
73428;SDS011;61643;49.564;17.412;2023-07-16T09:17:25;10.20;;;8.85;;
73428;SDS011;61643;49.564;17.412;2023-07-16T09:19:51;9.55;;;8.55;;
73428;SDS011;61643;49.564;17.412;2023-07-16T09:22:18;11.05;;;9.18;;
73428;SDS011;61643;49.564;17.412;2023-07-16T09:24:45;10.50;;;9.20;;
73428;SDS011;61643;49.564;17.412;2023-07-16T09:29:39;12.07;;;10.30;;
73428;SDS011;61643;49.564;17.412;2023-07-16T09:32:05;12.23;;;9.60;;
73428;SDS011;61643;49.564;17.412;2023-07-16T09:34:31;10.93;;;9.48;;
73428;SDS011;61643;49.564;17.412;2023-07-16T09:36:58;10.43;;;9.27;;
73428;SDS011;61643;49.564;17.412;2023-07-16T09:39:26;10.48;;;9.43;;
73428;SDS011;61643;49.564;17.412;2023-07-16T09:41:52;10.07;;;8.50;;
73428;SDS011;61643;49.564;17.412;2023-07-16T09:44:18;12.50;;;9.90;;
73428;SDS011;61643;49.564;17.412;2023-07-16T09:46:45;11.32;;;9.23;;
73428;SDS011;61643;49.564;17.412;2023-07-16T09:49:13;10.43;;;9.43;;
73428;SDS011;61643;49.564;17.412;2023-07-16T09:51:40;10.18;;;8.95;;
73428;SDS011;61643;49.564;17.412;2023-07-16T09:54:08;10.25;;;8.98;;
73428;SDS011;61643;49.564;17.412;2023-07-16T09:56:44;9.90;;;8.93;;
73428;SDS011;61643;49.564;17.412;2023-07-16T09:59:16;13.10;;;9.40;;
73428;SDS011;61643;49.564;17.412;2023-07-16T10:01:46;12.43;;;8.95;;
73428;SDS011;61643;49.564;17.412;2023-07-16T10:04:13;10.77;;;9.63;;
73428;SDS011;61643;49.564;17.412;2023-07-16T10:06:57;12.27;;;10.98;;
73428;SDS011;61643;49.564;17.412;2023-07-16T10:12:13;10.30;;;9.25;;
73428;SDS011;61643;49.564;17.412;2023-07-16T10:14:41;9.73;;;8.73;;
73428;SDS011;61643;49.564;17.412;2023-07-16T10:17:11;9.73;;;8.82;;
73428;SDS011;61643;49.564;17.412;2023-07-16T10:22:12;11.23;;;8.57;;
73428;SDS011;61643;49.564;17.412;2023-07-16T10:24:39;12.27;;;8.73;;
73428;SDS011;61643;49.564;17.412;2023-07-16T10:27:05;10.82;;;9.05;;
73428;SDS011;61643;49.564;17.412;2023-07-16T10:29:31;11.00;;;9.10;;
73428;SDS011;61643;49.564;17.412;2023-07-16T10:31:58;11.27;;;9.20;;
73428;SDS011;61643;49.564;17.412;2023-07-16T10:34:24;9.68;;;8.68;;
73428;SDS011;61643;49.564;17.412;2023-07-16T10:39:17;9.85;;;8.95;;
73428;SDS011;61643;49.564;17.412;2023-07-16T10:41:43;10.07;;;9.05;;
73428;SDS011;61643;49.564;17.412;2023-07-16T10:44:10;9.80;;;8.85;;
73428;SDS011;61643;49.564;17.412;2023-07-16T10:46:41;9.98;;;8.80;;
73428;SDS011;61643;49.564;17.412;2023-07-16T10:49:08;10.20;;;9.20;;
73428;SDS011;61643;49.564;17.412;2023-07-16T10:51:33;9.45;;;8.52;;
73428;SDS011;61643;49.564;17.412;2023-07-16T10:54:00;9.90;;;9.00;;
73428;SDS011;61643;49.564;17.412;2023-07-16T10:56:26;10.18;;;9.20;;
73428;SDS011;61643;49.564;17.412;2023-07-16T10:58:52;9.98;;;8.93;;
73428;SDS011;61643;49.564;17.412;2023-07-16T11:01:18;10.50;;;9.38;;
73428;SDS011;61643;49.564;17.412;2023-07-16T11:03:45;9.95;;;9.05;;
73428;SDS011;61643;49.564;17.412;2023-07-16T11:06:11;9.43;;;8.45;;
73428;SDS011;61643;49.564;17.412;2023-07-16T11:08:42;9.52;;;8.63;;
73428;SDS011;61643;49.564;17.412;2023-07-16T11:11:08;11.70;;;8.65;;
73428;SDS011;61643;49.564;17.412;2023-07-16T11:13:34;9.13;;;8.23;;
73428;SDS011;61643;49.564;17.412;2023-07-16T11:16:06;10.32;;;8.07;;
73428;SDS011;61643;49.564;17.412;2023-07-16T11:20:59;9.43;;;8.55;;
73428;SDS011;61643;49.564;17.412;2023-07-16T11:23:25;9.23;;;8.32;;
73428;SDS011;61643;49.564;17.412;2023-07-16T11:25:52;11.45;;;8.93;;
73428;SDS011;61643;49.564;17.412;2023-07-16T11:28:18;10.45;;;8.50;;
73428;SDS011;61643;49.564;17.412;2023-07-16T11:30:44;8.95;;;8.05;;
73428;SDS011;61643;49.564;17.412;2023-07-16T11:33:10;9.85;;;8.25;;
73428;SDS011;61643;49.564;17.412;2023-07-16T11:35:37;10.27;;;8.13;;
73428;SDS011;61643;49.564;17.412;2023-07-16T11:38:06;9.40;;;8.50;;
73428;SDS011;61643;49.564;17.412;2023-07-16T11:40:33;9.07;;;8.18;;
73428;SDS011;61643;49.564;17.412;2023-07-16T11:43:08;8.55;;;7.75;;
73428;SDS011;61643;49.564;17.412;2023-07-16T11:45:37;9.65;;;8.60;;
73428;SDS011;61643;49.564;17.412;2023-07-16T11:48:04;9.85;;;8.88;;
73428;SDS011;61643;49.564;17.412;2023-07-16T11:50:30;9.10;;;8.30;;
73428;SDS011;61643;49.564;17.412;2023-07-16T11:52:58;9.35;;;8.45;;
73428;SDS011;61643;49.564;17.412;2023-07-16T11:55:27;9.43;;;8.40;;
73428;SDS011;61643;49.564;17.412;2023-07-16T11:57:53;8.80;;;7.90;;
73428;SDS011;61643;49.564;17.412;2023-07-16T12:00:19;9.65;;;8.75;;
73428;SDS011;61643;49.564;17.412;2023-07-16T12:02:45;9.45;;;8.55;;
73428;SDS011;61643;49.564;17.412;2023-07-16T12:05:17;9.27;;;8.38;;
73428;SDS011;61643;49.564;17.412;2023-07-16T12:10:09;11.50;;;8.48;;
73428;SDS011;61643;49.564;17.412;2023-07-16T12:12:35;9.27;;;8.30;;
73428;SDS011;61643;49.564;17.412;2023-07-16T12:15:12;9.07;;;8.15;;
73428;SDS011;61643;49.564;17.412;2023-07-16T12:17:38;9.48;;;7.97;;
73428;SDS011;61643;49.564;17.412;2023-07-16T12:20:04;11.52;;;8.75;;
73428;SDS011;61643;49.564;17.412;2023-07-16T12:22:30;9.45;;;8.57;;
73428;SDS011;61643;49.564;17.412;2023-07-16T12:24:57;9.80;;;8.82;;
73428;SDS011;61643;49.564;17.412;2023-07-16T12:27:23;8.95;;;8.05;;
73428;SDS011;61643;49.564;17.412;2023-07-16T12:29:49;10.95;;;8.98;;
73428;SDS011;61643;49.564;17.412;2023-07-16T12:32:15;10.02;;;9.05;;
73428;SDS011;61643;49.564;17.412;2023-07-16T12:34:41;9.52;;;8.60;;
73428;SDS011;61643;49.564;17.412;2023-07-16T12:37:07;8.80;;;7.85;;
73428;SDS011;61643;49.564;17.412;2023-07-16T12:39:33;8.48;;;7.72;;
73428;SDS011;61643;49.564;17.412;2023-07-16T12:41:59;8.95;;;8.00;;
73428;SDS011;61643;49.564;17.412;2023-07-16T12:44:25;8.63;;;7.82;;
73428;SDS011;61643;49.564;17.412;2023-07-16T12:46:51;8.32;;;7.50;;
73428;SDS011;61643;49.564;17.412;2023-07-16T12:49:17;12.40;;;8.00;;
73428;SDS011;61643;49.564;17.412;2023-07-16T12:51:43;8.63;;;7.82;;
73428;SDS011;61643;49.564;17.412;2023-07-16T12:54:09;10.20;;;7.63;;
73428;SDS011;61643;49.564;17.412;2023-07-16T12:56:35;9.00;;;7.50;;
73428;SDS011;61643;49.564;17.412;2023-07-16T12:59:01;9.80;;;8.07;;
73428;SDS011;61643;49.564;17.412;2023-07-16T13:01:27;9.73;;;7.50;;
73428;SDS011;61643;49.564;17.412;2023-07-16T13:03:53;8.60;;;7.75;;
73428;SDS011;61643;49.564;17.412;2023-07-16T13:06:19;8.30;;;7.40;;
73428;SDS011;61643;49.564;17.412;2023-07-16T13:08:45;6.35;;;5.70;;
73428;SDS011;61643;49.564;17.412;2023-07-16T13:11:11;7.63;;;5.53;;
73428;SDS011;61643;49.564;17.412;2023-07-16T13:13:37;6.70;;;5.03;;
73428;SDS011;61643;49.564;17.412;2023-07-16T13:16:03;5.78;;;5.28;;
73428;SDS011;61643;49.564;17.412;2023-07-16T13:18:29;7.03;;;5.82;;
73428;SDS011;61643;49.564;17.412;2023-07-16T13:20:55;5.63;;;4.80;;
73428;SDS011;61643;49.564;17.412;2023-07-16T13:23:21;6.00;;;5.40;;
73428;SDS011;61643;49.564;17.412;2023-07-16T13:25:47;7.18;;;5.88;;
73428;SDS011;61643;49.564;17.412;2023-07-16T13:28:16;9.18;;;5.60;;
73428;SDS011;61643;49.564;17.412;2023-07-16T13:30:43;5.25;;;4.75;;
73428;SDS011;61643;49.564;17.412;2023-07-16T13:33:09;6.13;;;5.50;;
73428;SDS011;61643;49.564;17.412;2023-07-16T13:35:34;4.13;;;3.83;;
73428;SDS011;61643;49.564;17.412;2023-07-16T13:38:00;4.75;;;3.80;;
73428;SDS011;61643;49.564;17.412;2023-07-16T13:40:27;3.78;;;3.40;;
73428;SDS011;61643;49.564;17.412;2023-07-16T13:42:53;4.10;;;3.70;;
73428;SDS011;61643;49.564;17.412;2023-07-16T13:45:19;4.32;;;3.65;;
73428;SDS011;61643;49.564;17.412;2023-07-16T13:47:45;3.65;;;3.35;;
73428;SDS011;61643;49.564;17.412;2023-07-16T13:50:11;3.55;;;3.25;;
73428;SDS011;61643;49.564;17.412;2023-07-16T13:52:37;4.20;;;3.65;;
73428;SDS011;61643;49.564;17.412;2023-07-16T13:55:04;3.75;;;3.38;;
73428;SDS011;61643;49.564;17.412;2023-07-16T13:57:31;4.50;;;3.42;;
73428;SDS011;61643;49.564;17.412;2023-07-16T13:59:56;3.90;;;3.60;;
73428;SDS011;61643;49.564;17.412;2023-07-16T14:02:22;5.50;;;3.45;;
73428;SDS011;61643;49.564;17.412;2023-07-16T14:04:48;3.47;;;3.17;;
73428;SDS011;61643;49.564;17.412;2023-07-16T14:07:14;4.63;;;3.33;;
73428;SDS011;61643;49.564;17.412;2023-07-16T14:09:40;3.33;;;2.70;;
73428;SDS011;61643;49.564;17.412;2023-07-16T14:12:06;4.60;;;2.80;;
73428;SDS011;61643;49.564;17.412;2023-07-16T14:14:32;6.30;;;3.00;;
73428;SDS011;61643;49.564;17.412;2023-07-16T14:16:58;3.47;;;2.80;;
73428;SDS011;61643;49.564;17.412;2023-07-16T14:19:24;4.18;;;2.92;;
73428;SDS011;61643;49.564;17.412;2023-07-16T14:21:50;3.95;;;3.20;;
73428;SDS011;61643;49.564;17.412;2023-07-16T14:24:16;3.28;;;2.90;;
73428;SDS011;61643;49.564;17.412;2023-07-16T14:26:42;3.45;;;3.15;;
73428;SDS011;61643;49.564;17.412;2023-07-16T14:29:08;3.60;;;3.30;;
73428;SDS011;61643;49.564;17.412;2023-07-16T14:31:36;3.80;;;3.17;;
73428;SDS011;61643;49.564;17.412;2023-07-16T14:34:03;3.55;;;3.20;;
73428;SDS011;61643;49.564;17.412;2023-07-16T14:36:29;3.47;;;2.70;;
73428;SDS011;61643;49.564;17.412;2023-07-16T14:38:55;3.75;;;3.08;;
73428;SDS011;61643;49.564;17.412;2023-07-16T14:41:20;3.03;;;2.72;;
73428;SDS011;61643;49.564;17.412;2023-07-16T14:43:47;4.38;;;2.90;;
73428;SDS011;61643;49.564;17.412;2023-07-16T14:46:15;2.80;;;2.60;;